createdAt,value
2018-01-14T00:01:15.776Z,5.50
2018-01-14T00:03:43.228Z,5.40
2018-01-14T00:06:10.662Z,5.50
2018-01-14T00:08:38.852Z,5.40
2018-01-14T00:11:07.076Z,5.40
2018-01-14T00:13:34.495Z,5.40
2018-01-14T00:16:01.940Z,5.40
2018-01-14T00:18:29.380Z,5.40
2018-01-14T00:20:56.844Z,5.40
2018-01-14T00:23:24.268Z,5.40
2018-01-14T00:25:51.700Z,5.40
2018-01-14T00:28:19.119Z,5.40
2018-01-14T00:30:47.339Z,5.30
2018-01-14T00:33:15.672Z,5.30
2018-01-14T00:35:43.099Z,5.30
2018-01-14T00:38:10.580Z,5.30
2018-01-14T00:40:38.000Z,5.30
2018-01-14T00:43:07.145Z,5.30
2018-01-14T00:45:34.576Z,5.30
2018-01-14T00:48:01.995Z,5.30
2018-01-14T00:50:29.456Z,5.30
2018-01-14T00:52:57.847Z,5.30
2018-01-14T00:55:25.275Z,5.30
2018-01-14T00:57:52.890Z,5.20
2018-01-14T01:00:20.320Z,5.20
2018-01-14T01:02:48.547Z,5.20
2018-01-14T01:05:15.980Z,5.20
2018-01-14T01:07:44.172Z,5.20
2018-01-14T01:10:12.404Z,5.20
2018-01-14T01:12:39.829Z,5.20
2018-01-14T01:15:08.048Z,5.20
2018-01-14T01:17:35.467Z,5.20
2018-01-14T01:20:03.031Z,5.20
2018-01-14T01:22:30.411Z,5.20
2018-01-14T01:24:57.835Z,5.20
2018-01-14T01:27:25.295Z,5.20
2018-01-14T01:29:52.724Z,5.10
2018-01-14T01:32:20.952Z,5.10
2018-01-14T01:34:48.380Z,5.10
2018-01-14T01:37:16.563Z,5.10
2018-01-14T01:39:44.068Z,5.00
2018-01-14T01:42:11.548Z,5.00
2018-01-14T01:44:39.008Z,5.00
2018-01-14T01:47:06.484Z,5.00
2018-01-14T01:49:33.907Z,5.00
2018-01-14T01:52:01.526Z,5.00
2018-01-14T01:54:29.692Z,5.00
2018-01-14T01:56:57.888Z,5.00
2018-01-14T01:59:25.372Z,5.00
2018-01-14T02:01:52.802Z,5.00
2018-01-14T02:04:20.307Z,5.00
2018-01-14T02:06:47.735Z,4.90
2018-01-14T02:09:15.156Z,4.90
2018-01-14T02:11:42.620Z,4.90
2018-01-14T02:14:10.044Z,4.90
2018-01-14T02:16:37.475Z,4.90
2018-01-14T02:19:04.910Z,4.90
2018-01-14T02:21:33.116Z,4.80
2018-01-14T02:24:00.540Z,4.80
2018-01-14T02:26:28.052Z,4.80
2018-01-14T02:28:55.467Z,4.80
2018-01-14T02:31:22.904Z,4.80
2018-01-14T02:33:50.327Z,4.80
2018-01-14T02:36:18.543Z,4.80
2018-01-14T02:38:45.963Z,4.70
2018-01-14T02:41:13.395Z,4.70
2018-01-14T02:43:40.811Z,4.80
2018-01-14T02:46:09.002Z,4.70
2018-01-14T02:48:37.194Z,4.70
2018-01-14T02:51:05.403Z,4.70
2018-01-14T02:53:32.819Z,4.70
2018-01-14T02:56:00.349Z,4.70
2018-01-14T02:58:28.516Z,4.70
2018-01-14T03:00:56.719Z,4.60
2018-01-14T03:03:24.197Z,4.60
2018-01-14T03:05:51.663Z,4.60
2018-01-14T03:08:19.127Z,4.60
2018-01-14T03:10:46.558Z,4.60
2018-01-14T03:13:14.958Z,4.60
2018-01-14T03:15:43.159Z,4.60
2018-01-14T03:18:11.347Z,4.60
2018-01-14T03:20:39.558Z,4.50
2018-01-14T03:23:07.883Z,4.50
2018-01-14T03:25:35.415Z,4.50
2018-01-14T03:28:02.831Z,4.50
2018-01-14T03:30:30.259Z,4.50
2018-01-14T03:32:58.744Z,4.40
2018-01-14T03:35:26.224Z,4.40
2018-01-14T03:37:53.684Z,4.40
2018-01-14T03:40:21.106Z,4.40
2018-01-14T03:42:48.716Z,4.40
2018-01-14T03:45:16.134Z,4.40
2018-01-14T03:47:43.668Z,4.30
2018-01-14T03:50:11.135Z,4.30
2018-01-14T03:52:38.555Z,4.30
2018-01-14T03:55:06.083Z,4.30
2018-01-14T03:57:33.511Z,4.30
2018-01-14T04:00:01.741Z,4.30
2018-01-14T04:02:29.207Z,4.20
2018-01-14T04:04:56.632Z,4.30
2018-01-14T04:07:24.243Z,4.30
2018-01-14T04:09:51.659Z,4.30
2018-01-14T04:12:19.179Z,4.20
2018-01-14T04:14:46.651Z,4.20
2018-01-14T04:17:14.087Z,4.20
2018-01-14T04:19:41.495Z,4.20
2018-01-14T04:22:08.927Z,4.20
2018-01-14T04:24:37.142Z,4.10
2018-01-14T04:27:04.571Z,4.10
2018-01-14T04:29:31.986Z,4.10
2018-01-14T04:31:59.415Z,4.10
2018-01-14T04:34:26.835Z,4.00
2018-01-14T04:36:54.287Z,4.00
2018-01-14T04:39:21.765Z,4.00
2018-01-14T04:41:49.189Z,4.00
2018-01-14T04:44:16.699Z,4.00
2018-01-14T04:46:44.132Z,4.00
2018-01-14T04:49:11.635Z,4.00
2018-01-14T04:51:39.059Z,4.00
2018-01-14T04:54:06.605Z,4.00
2018-01-14T04:56:34.052Z,4.00
2018-01-14T04:59:01.519Z,4.00
2018-01-14T05:01:29.692Z,4.00
2018-01-14T05:03:57.875Z,4.00
2018-01-14T05:06:26.070Z,3.90
2018-01-14T05:08:53.551Z,3.90
2018-01-14T05:11:20.979Z,3.90
2018-01-14T05:13:48.403Z,3.90
2018-01-14T05:16:15.831Z,3.90
2018-01-14T05:18:44.028Z,3.90
2018-01-14T05:21:11.451Z,3.90
2018-01-14T05:23:38.871Z,3.90
2018-01-14T05:26:06.299Z,3.90
2018-01-14T05:28:33.720Z,3.90
2018-01-14T05:31:01.147Z,3.90
2018-01-14T05:33:28.660Z,3.90
2018-01-14T05:35:56.086Z,3.90
2018-01-14T05:38:24.271Z,3.90
2018-01-14T05:40:51.695Z,3.90
2018-01-14T05:43:19.122Z,3.90
2018-01-14T05:45:47.338Z,3.90
2018-01-14T05:48:14.751Z,3.90
2018-01-14T05:50:42.176Z,3.90
2018-01-14T05:53:09.652Z,3.90
2018-01-14T05:55:37.116Z,3.80
2018-01-14T05:58:04.547Z,3.80
2018-01-14T06:00:31.963Z,3.80
2018-01-14T06:03:00.547Z,3.80
2018-01-14T06:05:28.020Z,3.80
2018-01-14T06:07:55.447Z,3.80
2018-01-14T06:10:22.923Z,3.80
2018-01-14T06:12:51.141Z,3.80
2018-01-14T06:15:18.619Z,3.80
2018-01-14T06:17:46.187Z,3.80
2018-01-14T06:20:13.618Z,3.80
2018-01-14T06:22:41.039Z,3.80
2018-01-14T06:25:08.459Z,3.80
2018-01-14T06:27:36.658Z,3.80
2018-01-14T06:30:04.871Z,3.70
2018-01-14T06:32:32.304Z,3.70
2018-01-14T06:34:59.720Z,3.80
2018-01-14T06:37:27.179Z,3.80
2018-01-14T06:39:54.639Z,3.80
2018-01-14T06:42:22.126Z,3.80
2018-01-14T06:44:49.580Z,3.70
2018-01-14T06:47:17.028Z,3.70
2018-01-14T06:49:45.235Z,3.70
2018-01-14T06:52:12.728Z,3.70
2018-01-14T06:54:40.185Z,3.70
2018-01-14T06:57:07.615Z,3.70
2018-01-14T06:59:35.036Z,3.70
2018-01-14T07:02:02.484Z,3.70
2018-01-14T07:04:29.960Z,3.70
2018-01-14T07:06:57.383Z,3.70
2018-01-14T07:09:24.807Z,3.70
2018-01-14T07:11:52.235Z,3.70
2018-01-14T07:14:20.649Z,3.70
2018-01-14T07:16:48.079Z,3.70
2018-01-14T07:19:15.595Z,3.70
2018-01-14T07:21:43.064Z,3.70
2018-01-14T07:24:10.531Z,3.80
2018-01-14T07:26:37.955Z,3.80
2018-01-14T07:29:05.471Z,3.80
2018-01-14T07:31:32.919Z,3.80
2018-01-14T07:34:01.139Z,3.80
2018-01-14T07:36:28.620Z,3.80
2018-01-14T07:38:56.071Z,3.80
2018-01-14T07:41:23.516Z,3.80
2018-01-14T07:43:51.744Z,3.80
2018-01-14T07:46:19.175Z,3.80
2018-01-14T07:48:47.363Z,3.80
2018-01-14T07:51:15.567Z,3.80
2018-01-14T07:53:43.042Z,3.80
2018-01-14T07:56:10.463Z,3.80
2018-01-14T07:58:37.976Z,3.80
2018-01-14T08:01:05.403Z,3.80
2018-01-14T08:03:32.830Z,3.80
2018-01-14T08:06:00.244Z,3.80
2018-01-14T08:08:27.751Z,3.80
2018-01-14T08:10:55.167Z,3.80
2018-01-14T08:13:22.602Z,3.80
2018-01-14T08:15:50.063Z,3.80
2018-01-14T08:18:17.487Z,3.80
2018-01-14T08:20:44.912Z,3.80
2018-01-14T08:23:12.366Z,3.80
2018-01-14T08:25:39.838Z,3.80
2018-01-14T08:28:07.308Z,3.80
2018-01-14T08:30:34.727Z,3.80
2018-01-14T08:33:03.176Z,3.80
2018-01-14T08:35:30.753Z,3.80
2018-01-14T08:37:58.212Z,3.80
2018-01-14T08:40:25.635Z,3.90
2018-01-14T08:42:53.067Z,3.90
2018-01-14T08:45:20.510Z,3.90
2018-01-14T08:47:47.984Z,3.90
2018-01-14T08:50:15.459Z,3.90
2018-01-14T08:52:42.931Z,3.90
2018-01-14T08:55:10.351Z,3.90
2018-01-14T08:57:37.777Z,3.90
2018-01-14T09:00:05.235Z,4.00
2018-01-14T09:02:32.664Z,4.00
2018-01-14T09:05:00.175Z,4.00
2018-01-14T09:07:27.645Z,4.00
2018-01-14T09:09:55.119Z,4.00
2018-01-14T09:12:22.543Z,4.10
2018-01-14T09:14:49.967Z,4.10
2018-01-14T09:17:17.391Z,4.10
2018-01-14T09:19:45.606Z,4.10
2018-01-14T09:22:13.036Z,4.10
2018-01-14T09:24:40.454Z,4.10
2018-01-14T09:27:07.883Z,4.10
2018-01-14T09:29:36.100Z,4.10
2018-01-14T09:32:03.531Z,4.10
2018-01-14T09:34:31.042Z,4.10
2018-01-14T09:36:58.467Z,4.10
2018-01-14T09:39:25.987Z,4.10
2018-01-14T09:41:53.411Z,4.20
2018-01-14T09:44:20.835Z,4.20
2018-01-14T09:46:48.598Z,4.20
2018-01-14T09:49:16.767Z,4.20
2018-01-14T09:51:44.183Z,4.20
2018-01-14T09:54:12.432Z,4.20
2018-01-14T09:56:39.909Z,4.30
2018-01-14T09:59:07.333Z,4.30
2018-01-14T10:01:34.851Z,4.30
2018-01-14T10:04:02.277Z,4.30
2018-01-14T10:06:29.787Z,4.40
2018-01-14T10:08:57.260Z,4.40
2018-01-14T10:11:24.679Z,4.40
2018-01-14T10:13:52.175Z,4.40
2018-01-14T10:16:20.355Z,4.40
2018-01-14T10:18:48.556Z,4.40
2018-01-14T10:21:16.147Z,4.40
2018-01-14T10:23:43.571Z,4.50
2018-01-14T10:26:10.987Z,4.50
2018-01-14T10:28:38.450Z,4.60
2018-01-14T10:31:05.863Z,4.60
2018-01-14T10:33:33.288Z,4.60
2018-01-14T10:36:00.859Z,4.60
2018-01-14T10:38:28.282Z,4.60
2018-01-14T10:40:55.698Z,4.60
2018-01-14T10:43:23.147Z,4.70
2018-01-14T10:45:50.634Z,4.70
2018-01-14T10:48:18.818Z,4.70
2018-01-14T10:50:46.231Z,4.70
2018-01-14T10:53:15.401Z,4.80
2018-01-14T10:55:42.879Z,4.80
2018-01-14T10:58:10.339Z,4.80
2018-01-14T11:00:43.385Z,4.80
2018-01-14T11:03:10.811Z,4.80
2018-01-14T11:05:38.275Z,4.90
2018-01-14T11:08:05.751Z,4.90
2018-01-14T11:10:33.220Z,4.90
2018-01-14T11:13:01.615Z,5.00
2018-01-14T11:15:29.037Z,5.00
2018-01-14T11:17:56.468Z,5.00
2018-01-14T11:20:23.920Z,5.00
2018-01-14T11:22:51.347Z,5.10
2018-01-14T11:25:18.763Z,5.10
2018-01-14T11:27:46.233Z,5.20
2018-01-14T11:30:13.643Z,5.20
2018-01-14T11:32:41.219Z,5.20
2018-01-14T11:35:08.634Z,5.20
2018-01-14T11:37:36.067Z,5.30
2018-01-14T11:40:05.043Z,5.40
2018-01-14T11:42:32.471Z,5.40
2018-01-14T11:44:59.889Z,5.50
2018-01-14T11:47:27.303Z,5.50
2018-01-14T11:49:54.735Z,5.60
2018-01-14T11:52:22.247Z,5.70
2018-01-14T11:54:49.737Z,5.70
2018-01-14T11:57:17.355Z,5.80
2018-01-14T11:59:44.872Z,5.90
2018-01-14T12:02:12.296Z,5.90
2018-01-14T12:04:39.728Z,6.00
2018-01-14T12:07:07.145Z,6.00
2018-01-14T12:09:35.374Z,6.10
2018-01-14T12:12:02.800Z,6.20
2018-01-14T12:14:31.016Z,6.20
2018-01-14T12:16:58.499Z,6.20
2018-01-14T12:19:25.955Z,6.20
2018-01-14T12:21:53.371Z,6.20
2018-01-14T12:24:20.895Z,6.20
2018-01-14T12:26:48.320Z,6.20
2018-01-14T12:29:15.759Z,6.20
2018-01-14T12:31:43.203Z,6.20
2018-01-14T12:37:12.192Z,6.20
2018-01-14T12:39:39.624Z,6.20
2018-01-14T12:42:07.082Z,6.20
2018-01-14T12:44:34.506Z,6.20
2018-01-14T12:47:02.046Z,6.30
2018-01-14T12:49:29.470Z,6.30
2018-01-14T12:51:57.679Z,6.30
2018-01-14T12:54:25.164Z,6.30
2018-01-14T12:56:52.591Z,6.30
2018-01-14T12:59:20.023Z,6.30
2018-01-14T13:01:47.559Z,6.30
2018-01-14T13:04:15.216Z,6.30
2018-01-14T13:06:43.424Z,6.30
2018-01-14T13:09:11.139Z,6.30
2018-01-14T13:11:38.600Z,6.30
2018-01-14T13:14:06.851Z,6.40
2018-01-14T13:16:34.319Z,6.40
2018-01-14T13:19:02.491Z,6.70
2018-01-14T13:21:30.674Z,6.90
2018-01-14T13:23:58.099Z,6.90
2018-01-14T13:26:25.518Z,7.00
2018-01-14T13:28:53.707Z,6.90
2018-01-14T13:31:21.119Z,6.90
2018-01-14T13:33:48.559Z,6.90
2018-01-14T13:36:15.979Z,6.90
2018-01-14T13:38:44.287Z,6.90
2018-01-14T13:41:12.508Z,6.90
2018-01-14T13:43:39.926Z,7.00
2018-01-14T13:46:07.339Z,6.90
2018-01-14T13:48:34.763Z,6.90
2018-01-14T13:51:02.276Z,6.90
2018-01-14T13:53:29.748Z,6.90
2018-01-14T13:55:57.171Z,6.80
2018-01-14T13:58:24.595Z,6.80
2018-01-14T14:00:52.011Z,6.70
2018-01-14T14:03:19.436Z,6.70
2018-01-14T14:05:46.856Z,6.70
2018-01-14T14:08:14.367Z,6.70
2018-01-14T14:10:41.791Z,6.60
2018-01-14T14:13:10.226Z,6.60
2018-01-14T14:15:37.651Z,6.60
2018-01-14T14:18:05.070Z,6.60
2018-01-14T14:20:32.491Z,6.50
2018-01-14T14:22:59.924Z,6.50
2018-01-14T14:25:27.339Z,6.40
2018-01-14T14:27:55.631Z,6.40
2018-01-14T14:30:23.823Z,6.30
2018-01-14T14:32:52.032Z,6.30
2018-01-14T14:35:19.455Z,6.30
2018-01-14T14:37:46.991Z,6.30
2018-01-14T14:40:14.439Z,6.30
2018-01-14T14:42:41.855Z,6.20
2018-01-14T14:45:09.383Z,6.20
2018-01-14T14:47:36.800Z,6.10
2018-01-14T14:50:04.227Z,6.10
2018-01-14T14:52:31.644Z,6.10
2018-01-14T14:54:59.071Z,6.10
2018-01-14T14:57:26.489Z,6.10
2018-01-14T14:59:54.680Z,6.00
2018-01-14T15:02:22.871Z,6.00
2018-01-14T15:04:51.059Z,5.90
2018-01-14T15:07:19.252Z,5.90
2018-01-14T15:09:47.457Z,5.90
2018-01-14T15:12:14.879Z,5.90
2018-01-14T15:14:42.299Z,5.80
2018-01-14T15:17:09.768Z,5.80
2018-01-14T15:19:37.190Z,5.80
2018-01-14T15:22:04.635Z,5.70
2018-01-14T15:24:32.047Z,5.70
2018-01-14T15:27:00.260Z,5.70
2018-01-14T15:29:28.443Z,5.70
2018-01-14T15:31:55.868Z,5.70
2018-01-14T15:34:23.390Z,5.70
2018-01-14T15:36:50.802Z,5.60
2018-01-14T15:39:18.237Z,5.60
2018-01-14T15:41:45.650Z,5.60
2018-01-14T15:44:13.159Z,5.60
2018-01-14T15:46:40.584Z,5.60
2018-01-14T15:49:08.100Z,5.50
2018-01-14T15:51:35.521Z,5.50
2018-01-14T15:54:02.939Z,5.50
2018-01-14T15:56:30.369Z,5.50
2018-01-14T15:58:57.792Z,5.50
2018-01-14T16:01:25.208Z,5.40
2018-01-14T16:03:52.631Z,5.30
2018-01-14T16:06:20.083Z,5.30
2018-01-14T16:08:47.552Z,5.20
2018-01-14T16:11:15.027Z,5.10
2018-01-14T16:13:42.443Z,5.00
2018-01-14T16:16:10.635Z,4.80
2018-01-14T16:18:38.151Z,4.80
2018-01-14T16:21:05.580Z,4.70
2018-01-14T16:23:33.075Z,4.70
2018-01-14T16:26:00.504Z,4.60
2018-01-14T16:28:28.032Z,4.50
2018-01-14T16:30:55.464Z,4.40
2018-01-14T16:33:22.967Z,4.30
2018-01-14T16:35:50.392Z,4.20
2018-01-14T16:38:17.810Z,4.10
2018-01-14T16:40:45.228Z,4.00
2018-01-14T16:43:13.603Z,3.90
2018-01-14T16:45:41.027Z,3.90
2018-01-14T16:48:08.499Z,3.80
2018-01-14T16:50:35.971Z,3.70
2018-01-14T16:53:03.395Z,3.60
2018-01-14T16:55:30.907Z,3.50
2018-01-14T16:57:59.071Z,3.30
2018-01-14T17:00:27.270Z,3.20
2018-01-14T17:02:57.158Z,3.20
2018-01-14T17:05:24.579Z,3.10
2018-01-14T17:07:52.004Z,3.10
2018-01-14T17:10:19.427Z,3.00
2018-01-14T17:12:46.851Z,3.00
2018-01-14T17:15:14.274Z,2.90
2018-01-14T17:17:41.699Z,2.90
2018-01-14T17:20:09.907Z,2.80
2018-01-14T17:22:38.062Z,2.80
2018-01-14T17:25:05.492Z,2.80
2018-01-14T17:27:32.910Z,2.80
2018-01-14T17:30:01.107Z,2.60
2018-01-14T17:32:28.700Z,2.60
2018-01-14T17:34:56.167Z,2.60
2018-01-14T17:37:23.639Z,2.50
2018-01-14T17:39:51.071Z,2.50
2018-01-14T17:42:19.296Z,2.40
2018-01-14T17:44:46.762Z,2.40
2018-01-14T17:47:14.237Z,2.30
2018-01-14T17:49:41.703Z,2.30
2018-01-14T17:52:09.172Z,2.30
2018-01-14T17:54:36.600Z,2.20
2018-01-14T17:57:04.019Z,2.10
2018-01-14T17:59:31.447Z,2.00
2018-01-14T18:01:59.643Z,1.90
2018-01-14T18:04:27.831Z,1.80
2018-01-14T18:06:56.019Z,1.80
2018-01-14T18:09:24.240Z,1.80
2018-01-14T18:11:51.654Z,1.70
2018-01-14T18:14:19.167Z,1.70
2018-01-14T18:16:58.463Z,1.70
2018-01-14T18:19:25.895Z,1.60
2018-01-14T18:21:53.312Z,1.60
2018-01-14T18:24:20.737Z,1.60
2018-01-14T18:26:48.191Z,1.50
2018-01-14T18:29:15.662Z,1.50
2018-01-14T18:31:43.083Z,1.50
2018-01-14T18:34:10.595Z,1.50
2018-01-14T18:36:38.015Z,1.40
2018-01-14T18:39:05.436Z,1.40
2018-01-14T18:41:32.911Z,1.40
2018-01-14T18:44:00.387Z,1.40
2018-01-14T18:46:27.846Z,1.30
2018-01-14T18:48:55.259Z,1.20
2018-01-14T18:51:22.781Z,1.10
2018-01-14T18:53:50.199Z,1.10
2018-01-14T18:56:17.628Z,1.10
2018-01-14T18:58:45.066Z,1.00
2018-01-14T19:01:12.475Z,1.00
2018-01-14T19:03:39.903Z,1.00
2018-01-14T19:06:08.113Z,0.90
2018-01-14T19:08:35.545Z,0.90
2018-01-14T19:11:03.056Z,0.90
2018-01-14T19:13:30.554Z,0.90
2018-01-14T19:15:57.954Z,0.90
2018-01-14T19:18:25.460Z,0.90
2018-01-14T19:20:52.888Z,0.90
2018-01-14T19:23:20.299Z,0.90
2018-01-14T19:25:47.752Z,0.90
2018-01-14T19:28:15.959Z,0.80
2018-01-14T19:30:43.380Z,0.80
2018-01-14T19:33:11.789Z,0.80
2018-01-14T19:35:39.171Z,0.80
2018-01-14T19:38:06.587Z,0.80
2018-01-14T19:40:34.015Z,0.80
2018-01-14T19:43:02.351Z,0.80
2018-01-14T19:45:29.785Z,0.90
2018-01-14T19:47:57.250Z,0.90
2018-01-14T19:50:24.680Z,0.90
2018-01-14T19:52:52.090Z,0.90
2018-01-14T19:55:19.522Z,0.90
2018-01-14T19:57:47.707Z,0.90
2018-01-14T20:00:15.906Z,0.90
2018-01-14T20:02:43.319Z,0.80
2018-01-14T20:05:10.752Z,0.80
2018-01-14T20:07:38.940Z,0.80
2018-01-14T20:10:07.128Z,0.80
2018-01-14T20:12:34.552Z,0.70
2018-01-14T20:15:02.113Z,0.70
2018-01-14T20:17:29.547Z,0.70
2018-01-14T20:19:57.019Z,0.70
2018-01-14T20:22:24.640Z,0.70
2018-01-14T20:24:52.066Z,0.70
2018-01-14T20:27:19.537Z,0.70
2018-01-14T20:29:46.956Z,0.60
2018-01-14T20:32:14.383Z,0.70
2018-01-14T20:34:41.799Z,0.60
2018-01-14T20:37:09.314Z,0.60
2018-01-14T20:39:36.736Z,0.60
2018-01-14T20:42:04.251Z,0.60
2018-01-14T20:44:31.672Z,0.60
2018-01-14T20:47:00.627Z,0.60
2018-01-14T20:49:28.043Z,0.60
2018-01-14T20:51:56.233Z,0.60
2018-01-14T20:54:25.165Z,0.50
2018-01-14T20:56:53.476Z,0.50
2018-01-14T20:59:20.895Z,0.50
2018-01-14T21:01:48.327Z,0.50
2018-01-14T21:04:15.744Z,0.50
2018-01-14T21:06:43.927Z,0.50
2018-01-14T21:09:11.351Z,0.50
2018-01-14T21:11:38.799Z,0.50
2018-01-14T21:14:06.272Z,0.50
2018-01-14T21:16:34.429Z,0.50
2018-01-14T21:19:02.648Z,0.50
2018-01-14T21:21:30.116Z,0.50
2018-01-14T21:23:57.591Z,0.50
2018-01-14T21:26:25.012Z,0.40
2018-01-14T21:28:53.960Z,0.40
2018-01-14T21:31:21.385Z,0.40
2018-01-14T21:33:50.327Z,0.30
2018-01-14T21:36:17.747Z,0.30
2018-01-14T21:38:45.170Z,0.40
2018-01-14T21:41:12.586Z,0.40
2018-01-14T21:43:40.019Z,0.40
2018-01-14T21:46:07.439Z,0.40
2018-01-14T21:48:34.859Z,0.40
2018-01-14T21:51:02.280Z,0.40
2018-01-14T21:53:30.475Z,0.40
2018-01-14T21:55:58.687Z,0.30
2018-01-14T21:58:26.179Z,0.30
2018-01-14T22:00:53.734Z,0.40
2018-01-14T22:03:21.156Z,0.40
2018-01-14T22:05:48.567Z,0.40
2018-01-14T22:08:15.986Z,0.40
2018-01-14T22:10:43.415Z,0.30
2018-01-14T22:13:10.845Z,0.30
2018-01-14T22:15:39.039Z,0.30
2018-01-14T22:18:07.265Z,0.20
2018-01-14T22:20:35.415Z,0.20
2018-01-14T22:23:03.599Z,0.20
2018-01-14T22:25:31.787Z,0.20
2018-01-14T22:27:59.980Z,0.20
2018-01-14T22:30:28.181Z,0.20
2018-01-14T22:32:55.653Z,0.20
2018-01-14T22:35:23.083Z,0.20
2018-01-14T22:37:50.544Z,0.20
2018-01-14T22:40:17.935Z,0.20
2018-01-14T22:42:46.146Z,0.20
2018-01-14T22:45:13.570Z,0.10
2018-01-14T22:47:41.083Z,0.20
2018-01-14T22:50:08.552Z,0.20
2018-01-14T22:52:35.971Z,0.20
2018-01-14T22:55:03.411Z,0.10
2018-01-14T22:57:30.860Z,0.20
2018-01-14T22:59:58.291Z,0.20
2018-01-14T23:02:25.714Z,0.20
2018-01-14T23:04:53.147Z,0.10
2018-01-14T23:07:21.327Z,0.10
2018-01-14T23:09:49.520Z,0.10
2018-01-14T23:12:17.716Z,0.10
2018-01-14T23:14:50.764Z,0.10
2018-01-14T23:17:18.186Z,0.00
2018-01-14T23:19:47.555Z,0.10
2018-01-14T23:22:14.985Z,0.10
2018-01-14T23:24:42.404Z,0.10
2018-01-14T23:27:09.826Z,0.00
2018-01-14T23:29:37.255Z,0.00
2018-01-14T23:32:05.471Z,0.10
2018-01-14T23:34:32.895Z,0.00
2018-01-14T23:37:00.419Z,0.10
2018-01-14T23:39:27.884Z,0.10
2018-01-14T23:41:55.456Z,0.10
2018-01-14T23:44:22.879Z,0.10
2018-01-14T23:46:50.307Z,0.10
2018-01-14T23:49:17.771Z,0.20
2018-01-14T23:51:45.192Z,0.20
2018-01-14T23:54:12.702Z,0.20
2018-01-14T23:56:40.172Z,0.20
2018-01-14T23:59:07.587Z,0.20
